sensor_id;sensor_type;location;lat;lon;timestamp;pressure;altitude;pressure_sealevel;temperature;humidity
12759;BME280;20944;47.048;15.390;2023-01-28T00:02:27;97654.34;;;-0.65;100.00
12759;BME280;20944;47.048;15.390;2023-01-28T00:04:56;97584.44;;;-0.94;100.00
12759;BME280;20944;47.048;15.390;2023-01-28T00:07:26;97639.97;;;-0.52;100.00
12759;BME280;20944;47.048;15.390;2023-01-28T00:09:54;97620.06;;;-0.64;100.00
12759;BME280;20944;47.048;15.390;2023-01-28T00:12:22;97613.66;;;-0.89;100.00
12759;BME280;20944;47.048;15.390;2023-01-28T00:14:50;97558.44;;;-1.12;100.00
12759;BME280;20944;47.048;15.390;2023-01-28T00:17:21;97611.34;;;-0.75;100.00
12759;BME280;20944;47.048;15.390;2023-01-28T00:19:49;97650.25;;;-0.55;100.00
12759;BME280;20944;47.048;15.390;2023-01-28T00:22:20;97464.16;;;-1.65;100.00
12759;BME280;20944;47.048;15.390;2023-01-28T00:24:50;97633.78;;;-0.65;100.00
12759;BME280;20944;47.048;15.390;2023-01-28T00:27:21;97658.16;;;-0.43;100.00
12759;BME280;20944;47.048;15.390;2023-01-28T00:29:52;97652.91;;;-0.49;100.00
12759;BME280;20944;47.048;15.390;2023-01-28T00:32:21;97512.72;;;-1.30;100.00
12759;BME280;20944;47.048;15.390;2023-01-28T00:34:51;97537.78;;;-1.17;100.00
12759;BME280;20944;47.048;15.390;2023-01-28T00:37:19;97658.19;;;-0.40;100.00
12759;BME280;20944;47.048;15.390;2023-01-28T00:39:49;97535.31;;;-1.11;100.00
12759;BME280;20944;47.048;15.390;2023-01-28T00:42:18;97659.06;;;-0.39;100.00
12759;BME280;20944;47.048;15.390;2023-01-28T00:44:46;97656.47;;;-0.41;100.00
12759;BME280;20944;47.048;15.390;2023-01-28T00:47:16;97658.19;;;-0.38;100.00
12759;BME280;20944;47.048;15.390;2023-01-28T00:49:45;97653.06;;;-0.38;100.00
12759;BME280;20944;47.048;15.390;2023-01-28T00:52:13;97640.06;;;-0.46;100.00
12759;BME280;20944;47.048;15.390;2023-01-28T00:54:41;97668.56;;;-0.35;100.00
12759;BME280;20944;47.048;15.390;2023-01-28T00:57:11;97668.69;;;-0.26;100.00
12759;BME280;20944;47.048;15.390;2023-01-28T00:59:41;97670.47;;;-0.23;100.00
12759;BME280;20944;47.048;15.390;2023-01-28T01:02:10;97619.16;;;-0.67;100.00
12759;BME280;20944;47.048;15.390;2023-01-28T01:04:43;97664.16;;;-0.42;100.00
12759;BME280;20944;47.048;15.390;2023-01-28T01:07:29;97673.53;;;-0.44;100.00
12759;BME280;20944;47.048;15.390;2023-01-28T01:10:09;97675.25;;;-0.45;100.00
12759;BME280;20944;47.048;15.390;2023-01-28T01:12:40;97646.84;;;-0.52;100.00
12759;BME280;20944;47.048;15.390;2023-01-28T01:15:11;97674.56;;;-0.35;100.00
12759;BME280;20944;47.048;15.390;2023-01-28T01:17:41;97672.84;;;-0.36;100.00
12759;BME280;20944;47.048;15.390;2023-01-28T01:20:13;97613.81;;;-0.81;100.00
12759;BME280;20944;47.048;15.390;2023-01-28T01:22:41;97691.75;;;-0.34;100.00
12759;BME280;20944;47.048;15.390;2023-01-28T01:25:09;97680.59;;;-0.33;100.00
12759;BME280;20944;47.048;15.390;2023-01-28T01:27:43;97679.84;;;-0.25;100.00
12759;BME280;20944;47.048;15.390;2023-01-28T01:30:15;97676.41;;;-0.28;100.00
12759;BME280;20944;47.048;15.390;2023-01-28T01:32:43;97678.94;;;-0.29;100.00
12759;BME280;20944;47.048;15.390;2023-01-28T01:35:12;97494.63;;;-1.36;100.00
12759;BME280;20944;47.048;15.390;2023-01-28T01:37:42;97667.69;;;-0.37;100.00
12759;BME280;20944;47.048;15.390;2023-01-28T01:40:13;97688.50;;;-0.22;100.00
12759;BME280;20944;47.048;15.390;2023-01-28T01:42:43;97689.31;;;-0.24;100.00
12759;BME280;20944;47.048;15.390;2023-01-28T01:45:12;97681.59;;;-0.24;100.00
12759;BME280;20944;47.048;15.390;2023-01-28T01:47:46;97685.88;;;-0.25;100.00
12759;BME280;20944;47.048;15.390;2023-01-28T01:50:18;97612.31;;;-0.67;100.00
12759;BME280;20944;47.048;15.390;2023-01-28T01:52:52;97705.72;;;-0.18;100.00
12759;BME280;20944;47.048;15.390;2023-01-28T01:55:24;97686.00;;;-0.19;100.00
12759;BME280;20944;47.048;15.390;2023-01-28T01:57:57;97624.50;;;-0.57;100.00
12759;BME280;20944;47.048;15.390;2023-01-28T02:00:29;97688.56;;;-0.17;100.00
12759;BME280;20944;47.048;15.390;2023-01-28T02:02:58;97561.97;;;-1.05;100.00
12759;BME280;20944;47.048;15.390;2023-01-28T02:05:26;97583.63;;;-0.90;100.00
12759;BME280;20944;47.048;15.390;2023-01-28T02:07:57;97691.09;;;-0.20;100.00
12759;BME280;20944;47.048;15.390;2023-01-28T02:10:48;97709.94;;;-0.23;100.00
12759;BME280;20944;47.048;15.390;2023-01-28T02:13:20;97521.31;;;-1.28;100.00
12759;BME280;20944;47.048;15.390;2023-01-28T02:15:50;97680.66;;;-0.30;100.00
12759;BME280;20944;47.048;15.390;2023-01-28T02:18:20;97698.03;;;-0.15;100.00
12759;BME280;20944;47.048;15.390;2023-01-28T02:23:55;97695.44;;;-0.16;100.00
12759;BME280;20944;47.048;15.390;2023-01-28T02:26:56;97698.03;;;-0.16;100.00
12759;BME280;20944;47.048;15.390;2023-01-28T02:29:36;97691.34;;;-0.04;100.00
12759;BME280;20944;47.048;15.390;2023-01-28T02:32:10;97648.75;;;-0.39;100.00
12759;BME280;20944;47.048;15.390;2023-01-28T02:34:44;97690.28;;;-0.18;100.00
12759;BME280;20944;47.048;15.390;2023-01-28T02:37:16;97658.44;;;-0.77;100.00
12759;BME280;20944;47.048;15.390;2023-01-28T02:39:50;97687.56;;;-0.25;100.00
12759;BME280;20944;47.048;15.390;2023-01-28T02:42:21;97684.22;;;-0.20;100.00
12759;BME280;20944;47.048;15.390;2023-01-28T02:44:54;97629.78;;;-0.47;100.00
12759;BME280;20944;47.048;15.390;2023-01-28T02:47:22;97575.94;;;-0.88;100.00
12759;BME280;20944;47.048;15.390;2023-01-28T02:50:10;97684.22;;;-0.20;100.00
12759;BME280;20944;47.048;15.390;2023-01-28T02:52:56;97600.25;;;-0.69;100.00
12759;BME280;20944;47.048;15.390;2023-01-28T02:55:52;97673.94;;;-0.20;100.00
12759;BME280;20944;47.048;15.390;2023-01-28T02:58:29;97680.03;;;-0.13;100.00
12759;BME280;20944;47.048;15.390;2023-01-28T03:01:17;97673.84;;;-0.26;100.00
12759;BME280;20944;47.048;15.390;2023-01-28T03:03:56;97683.91;;;-0.40;100.00
12759;BME280;20944;47.048;15.390;2023-01-28T03:06:29;97685.63;;;-0.42;100.00
12759;BME280;20944;47.048;15.390;2023-01-28T03:09:03;97683.06;;;-0.39;100.00
12759;BME280;20944;47.048;15.390;2023-01-28T03:11:56;97687.41;;;-0.38;100.00
12759;BME280;20944;47.048;15.390;2023-01-28T03:14:48;97692.56;;;-0.36;100.00
12759;BME280;20944;47.048;15.390;2023-01-28T03:17:40;97683.19;;;-0.33;100.00
12759;BME280;20944;47.048;15.390;2023-01-28T03:20:31;97682.28;;;-0.35;100.00
12759;BME280;20944;47.048;15.390;2023-01-28T03:23:22;97592.97;;;-0.96;100.00
12759;BME280;20944;47.048;15.390;2023-01-28T03:26:13;97683.22;;;-0.31;100.00
12759;BME280;20944;47.048;15.390;2023-01-28T03:29:04;97588.22;;;-0.72;100.00
12759;BME280;20944;47.048;15.390;2023-01-28T03:31:53;97689.38;;;-0.20;100.00
12759;BME280;20944;47.048;15.390;2023-01-28T03:34:42;97685.19;;;-0.13;100.00
12759;BME280;20944;47.048;15.390;2023-01-28T03:37:28;97692.91;;;-0.13;100.00
12759;BME280;20944;47.048;15.390;2023-01-28T03:40:01;97666.97;;;-0.27;100.00
12759;BME280;20944;47.048;15.390;2023-01-28T03:42:30;97691.16;;;-0.16;100.00
12759;BME280;20944;47.048;15.390;2023-01-28T03:44:59;97699.47;;;-0.32;100.00
12759;BME280;20944;47.048;15.390;2023-01-28T03:47:31;97700.31;;;-0.33;100.00
12759;BME280;20944;47.048;15.390;2023-01-28T03:50:04;97697.81;;;-0.30;100.00
12759;BME280;20944;47.048;15.390;2023-01-28T03:52:34;97696.19;;;-0.23;100.00
12759;BME280;20944;47.048;15.390;2023-01-28T03:55:02;97689.44;;;-0.17;100.00
12759;BME280;20944;47.048;15.390;2023-01-28T03:57:40;97690.19;;;-0.24;100.00
12759;BME280;20944;47.048;15.390;2023-01-28T04:00:11;97685.91;;;-0.23;100.00
12759;BME280;20944;47.048;15.390;2023-01-28T04:02:40;97666.84;;;-0.35;100.00
12759;BME280;20944;47.048;15.390;2023-01-28T04:05:10;97684.13;;;-0.26;100.00
12759;BME280;20944;47.048;15.390;2023-01-28T04:07:42;97691.94;;;-0.20;100.00
12759;BME280;20944;47.048;15.390;2023-01-28T04:10:10;97691.28;;;-0.07;100.00
12759;BME280;20944;47.048;15.390;2023-01-28T04:12:39;97687.75;;;-0.15;100.00
12759;BME280;20944;47.048;15.390;2023-01-28T04:15:07;97677.31;;;-0.24;100.00
12759;BME280;20944;47.048;15.390;2023-01-28T04:17:43;97704.78;;;-0.23;100.00
12759;BME280;20944;47.048;15.390;2023-01-28T04:20:14;97619.94;;;-0.71;100.00
12759;BME280;20944;47.048;15.390;2023-01-28T04:22:42;97649.28;;;-0.62;100.00
12759;BME280;20944;47.048;15.390;2023-01-28T04:25:10;97692.88;;;-0.18;100.00
12759;BME280;20944;47.048;15.390;2023-01-28T04:27:39;97701.28;;;-0.28;100.00
12759;BME280;20944;47.048;15.390;2023-01-28T04:30:08;97555.75;;;-1.18;100.00
12759;BME280;20944;47.048;15.390;2023-01-28T04:32:37;97708.13;;;-0.30;100.00
12759;BME280;20944;47.048;15.390;2023-01-28T04:35:08;97687.34;;;-0.41;100.00
12759;BME280;20944;47.048;15.390;2023-01-28T04:37:41;97713.38;;;-0.22;100.00
12759;BME280;20944;47.048;15.390;2023-01-28T04:40:10;97710.81;;;-0.22;100.00
12759;BME280;20944;47.048;15.390;2023-01-28T04:42:39;97695.03;;;-0.42;100.00
12759;BME280;20944;47.048;15.390;2023-01-28T04:45:10;97725.09;;;-0.41;100.00
12759;BME280;20944;47.048;15.390;2023-01-28T04:47:38;97722.78;;;-0.24;100.00
12759;BME280;20944;47.048;15.390;2023-01-28T04:50:08;97676.00;;;-0.52;100.00
12759;BME280;20944;47.048;15.390;2023-01-28T04:52:36;97730.53;;;-0.23;100.00
12759;BME280;20944;47.048;15.390;2023-01-28T04:55:07;97711.50;;;-0.33;100.00
12759;BME280;20944;47.048;15.390;2023-01-28T04:57:36;97681.16;;;-0.50;100.00
12759;BME280;20944;47.048;15.390;2023-01-28T05:00:07;97726.13;;;-0.30;100.00
12759;BME280;20944;47.048;15.390;2023-01-28T05:02:35;97737.38;;;-0.25;100.00
12759;BME280;20944;47.048;15.390;2023-01-28T05:05:06;97734.94;;;-0.14;100.00
12759;BME280;20944;47.048;15.390;2023-01-28T05:07:35;97735.78;;;-0.17;100.00
12759;BME280;20944;47.048;15.390;2023-01-28T05:10:06;97582.41;;;-1.13;100.00
12759;BME280;20944;47.048;15.390;2023-01-28T05:12:35;97744.28;;;-0.21;100.00
12759;BME280;20944;47.048;15.390;2023-01-28T05:15:04;97749.47;;;-0.19;100.00
12759;BME280;20944;47.048;15.390;2023-01-28T05:17:32;97752.13;;;-0.13;100.00
12759;BME280;20944;47.048;15.390;2023-01-28T05:20:01;97750.38;;;-0.16;100.00
12759;BME280;20944;47.048;15.390;2023-01-28T05:22:29;97732.72;;;-0.46;100.00
12759;BME280;20944;47.048;15.390;2023-01-28T05:24:57;97732.59;;;-0.53;100.00
12759;BME280;20944;47.048;15.390;2023-01-28T05:27:29;97730.13;;;-0.47;100.00
12759;BME280;20944;47.048;15.390;2023-01-28T05:29:58;97761.31;;;-0.31;100.00
12759;BME280;20944;47.048;15.390;2023-01-28T05:32:28;97625.28;;;-1.12;100.00
12759;BME280;20944;47.048;15.390;2023-01-28T05:34:56;97740.59;;;-0.37;100.00
12759;BME280;20944;47.048;15.390;2023-01-28T05:37:25;97768.19;;;-0.30;100.00
12759;BME280;20944;47.048;15.390;2023-01-28T05:39:53;97771.63;;;-0.29;100.00
12759;BME280;20944;47.048;15.390;2023-01-28T05:42:23;97776.59;;;-0.38;100.00
12759;BME280;20944;47.048;15.390;2023-01-28T05:44:56;97780.97;;;-0.33;100.00
12759;BME280;20944;47.048;15.390;2023-01-28T05:47:24;97760.34;;;-0.37;100.00
12759;BME280;20944;47.048;15.390;2023-01-28T05:49:52;97782.91;;;-0.21;100.00
12759;BME280;20944;47.048;15.390;2023-01-28T05:52:20;97781.16;;;-0.23;100.00
12759;BME280;20944;47.048;15.390;2023-01-28T05:54:49;97781.94;;;-0.28;100.00
12759;BME280;20944;47.048;15.390;2023-01-28T05:57:17;97784.41;;;-0.32;100.00
12759;BME280;20944;47.048;15.390;2023-01-28T05:59:51;97791.34;;;-0.31;100.00
12759;BME280;20944;47.048;15.390;2023-01-28T06:02:20;97804.88;;;-0.41;100.00
12759;BME280;20944;47.048;15.390;2023-01-28T06:04:49;97799.66;;;-0.44;100.00
12759;BME280;20944;47.048;15.390;2023-01-28T06:07:17;97794.66;;;-0.37;100.00
12759;BME280;20944;47.048;15.390;2023-01-28T06:09:46;97787.59;;;-0.47;100.00
12759;BME280;20944;47.048;15.390;2023-01-28T06:12:14;97761.53;;;-0.65;100.00
12759;BME280;20944;47.048;15.390;2023-01-28T06:14:42;97790.16;;;-0.48;100.00
12759;BME280;20944;47.048;15.390;2023-01-28T06:17:10;97780.50;;;-0.60;100.00
12759;BME280;20944;47.048;15.390;2023-01-28T06:19:40;97687.72;;;-1.18;100.00
12759;BME280;20944;47.048;15.390;2023-01-28T06:22:08;97773.44;;;-0.72;100.00
12759;BME280;20944;47.048;15.390;2023-01-28T06:24:37;97644.38;;;-1.43;100.00
12759;BME280;20944;47.048;15.390;2023-01-28T06:27:05;97812.59;;;-0.41;100.00
12759;BME280;20944;47.048;15.390;2023-01-28T06:29:33;97752.81;;;-0.75;100.00
12759;BME280;20944;47.048;15.390;2023-01-28T06:32:01;97814.09;;;-0.51;100.00
12759;BME280;20944;47.048;15.390;2023-01-28T06:34:30;97706.78;;;-1.06;100.00
12759;BME280;20944;47.048;15.390;2023-01-28T06:36:59;97820.31;;;-0.41;100.00
12759;BME280;20944;47.048;15.390;2023-01-28T06:39:31;97779.50;;;-0.68;100.00
12759;BME280;20944;47.048;15.390;2023-01-28T06:41:59;97827.28;;;-0.36;100.00
12759;BME280;20944;47.048;15.390;2023-01-28T06:44:27;97837.63;;;-0.33;100.00
12759;BME280;20944;47.048;15.390;2023-01-28T06:46:55;97832.47;;;-0.33;100.00
12759;BME280;20944;47.048;15.390;2023-01-28T06:49:23;97843.63;;;-0.32;100.00
12759;BME280;20944;47.048;15.390;2023-01-28T06:51:58;97829.97;;;-0.28;100.00
12759;BME280;20944;47.048;15.390;2023-01-28T06:54:26;97828.25;;;-0.29;100.00
12759;BME280;20944;47.048;15.390;2023-01-28T06:56:54;97804.97;;;-0.35;100.00
12759;BME280;20944;47.048;15.390;2023-01-28T06:59:22;97815.41;;;-0.28;100.00
12759;BME280;20944;47.048;15.390;2023-01-28T07:01:57;97847.66;;;0.01;100.00
12759;BME280;20944;47.048;15.390;2023-01-28T07:04:25;97853.72;;;0.06;100.00
12759;BME280;20944;47.048;15.390;2023-01-28T07:06:53;97833.44;;;-0.26;100.00
12759;BME280;20944;47.048;15.390;2023-01-28T07:09:23;97858.38;;;-0.23;100.00
12759;BME280;20944;47.048;15.390;2023-01-28T07:11:51;97856.69;;;-0.21;100.00
12759;BME280;20944;47.048;15.390;2023-01-28T07:14:19;97791.16;;;-0.40;100.00
12759;BME280;20944;47.048;15.390;2023-01-28T07:17:01;97852.72;;;-0.06;100.00
12759;BME280;20944;47.048;15.390;2023-01-28T07:19:29;97858.66;;;-0.08;100.00
12759;BME280;20944;47.048;15.390;2023-01-28T07:21:58;97854.47;;;-0.03;100.00
12759;BME280;20944;47.048;15.390;2023-01-28T07:24:30;97840.38;;;-0.22;100.00
12759;BME280;20944;47.048;15.390;2023-01-28T07:26:58;97863.25;;;0.10;100.00
12759;BME280;20944;47.048;15.390;2023-01-28T07:29:29;97860.75;;;0.13;100.00
12759;BME280;20944;47.048;15.390;2023-01-28T07:31:57;97859.97;;;0.18;100.00
12759;BME280;20944;47.048;15.390;2023-01-28T07:34:26;97861.75;;;0.21;100.00
12759;BME280;20944;47.048;15.390;2023-01-28T07:36:54;97864.44;;;0.30;100.00
12759;BME280;20944;47.048;15.390;2023-01-28T07:39:23;97860.22;;;0.34;100.00
12759;BME280;20944;47.048;15.390;2023-01-28T07:41:52;97869.88;;;0.45;100.00
12759;BME280;20944;47.048;15.390;2023-01-28T07:44:21;97875.16;;;0.54;100.00
12759;BME280;20944;47.048;15.390;2023-01-28T07:46:49;97874.31;;;0.56;100.00
12759;BME280;20944;47.048;15.390;2023-01-28T07:49:17;97876.19;;;0.64;100.00
12759;BME280;20944;47.048;15.390;2023-01-28T07:51:46;97831.22;;;0.45;100.00
12759;BME280;20944;47.048;15.390;2023-01-28T07:54:16;97878.84;;;0.70;100.00
12759;BME280;20944;47.048;15.390;2023-01-28T07:56:47;97844.88;;;0.41;100.00
12759;BME280;20944;47.048;15.390;2023-01-28T07:59:16;97880.47;;;0.65;100.00
12759;BME280;20944;47.048;15.390;2023-01-28T08:01:47;97889.19;;;0.72;100.00
12759;BME280;20944;47.048;15.390;2023-01-28T08:04:16;97843.53;;;0.65;100.00
12759;BME280;20944;47.048;15.390;2023-01-28T08:06:44;97780.19;;;0.23;100.00
12759;BME280;20944;47.048;15.390;2023-01-28T08:09:12;97885.94;;;0.87;100.00
12759;BME280;20944;47.048;15.390;2023-01-28T08:11:40;97878.97;;;0.81;100.00
12759;BME280;20944;47.048;15.390;2023-01-28T08:14:09;97897.66;;;0.65;100.00
12759;BME280;20944;47.048;15.390;2023-01-28T08:16:39;97897.13;;;0.87;100.00
12759;BME280;20944;47.048;15.390;2023-01-28T08:19:07;97899.78;;;0.92;100.00
12759;BME280;20944;47.048;15.390;2023-01-28T08:21:36;97796.66;;;0.34;100.00
12759;BME280;20944;47.048;15.390;2023-01-28T08:24:05;97902.25;;;0.84;100.00
12759;BME280;20944;47.048;15.390;2023-01-28T08:26:33;97902.09;;;0.75;100.00
12759;BME280;20944;47.048;15.390;2023-01-28T08:29:02;97908.06;;;0.69;100.00
12759;BME280;20944;47.048;15.390;2023-01-28T08:31:31;97869.88;;;0.45;100.00
12759;BME280;20944;47.048;15.390;2023-01-28T08:34:01;97860.44;;;0.47;100.00
12759;BME280;20944;47.048;15.390;2023-01-28T08:36:29;97913.22;;;0.69;100.00
12759;BME280;20944;47.048;15.390;2023-01-28T08:38:57;97919.28;;;0.74;100.00
12759;BME280;20944;47.048;15.390;2023-01-28T08:41:28;97882.84;;;0.51;100.00
12759;BME280;20944;47.048;15.390;2023-01-28T08:43:57;97867.16;;;0.38;100.00
12759;BME280;20944;47.048;15.390;2023-01-28T08:46:26;97897.75;;;0.69;100.00
12759;BME280;20944;47.048;15.390;2023-01-28T08:48:54;97925.56;;;0.90;100.00
12759;BME280;20944;47.048;15.390;2023-01-28T08:51:25;97825.81;;;0.30;100.00
12759;BME280;20944;47.048;15.390;2023-01-28T08:53:54;97932.47;;;0.94;100.00
12759;BME280;20944;47.048;15.390;2023-01-28T08:56:22;97899.28;;;0.58;100.00
12759;BME280;20944;47.048;15.390;2023-01-28T08:58:50;97934.91;;;0.84;100.00
12759;BME280;20944;47.048;15.390;2023-01-28T09:01:21;97938.25;;;0.76;100.00
12759;BME280;20944;47.048;15.390;2023-01-28T09:03:49;97868.91;;;0.40;100.00
12759;BME280;20944;47.048;15.390;2023-01-28T09:06:17;97842.63;;;0.07;100.00
12759;BME280;20944;47.048;15.390;2023-01-28T09:08:49;97927.31;;;0.93;100.00
12759;BME280;20944;47.048;15.390;2023-01-28T09:11:17;97931.47;;;0.83;100.00
12759;BME280;20944;47.048;15.390;2023-01-28T09:13:46;97941.84;;;0.88;100.00
12759;BME280;20944;47.048;15.390;2023-01-28T09:16:14;97934.63;;;0.64;100.00
12759;BME280;20944;47.048;15.390;2023-01-28T09:18:42;97872.25;;;0.33;100.00
12759;BME280;20944;47.048;15.390;2023-01-28T09:21:10;97863.75;;;-0.11;100.00
12759;BME280;20944;47.048;15.390;2023-01-28T09:23:39;97918.28;;;0.65;100.00
12759;BME280;20944;47.048;15.390;2023-01-28T09:26:08;97926.09;;;0.69;100.00
12759;BME280;20944;47.048;15.390;2023-01-28T09:28:37;97969.41;;;0.89;100.00
12759;BME280;20944;47.048;15.390;2023-01-28T09:31:10;97963.38;;;0.88;100.00
12759;BME280;20944;47.048;15.390;2023-01-28T09:33:39;97957.25;;;0.83;100.00
12759;BME280;20944;47.048;15.390;2023-01-28T09:36:09;97968.84;;;1.11;100.00
12759;BME280;20944;47.048;15.390;2023-01-28T09:38:37;97874.44;;;0.63;100.00
12759;BME280;20944;47.048;15.390;2023-01-28T09:41:22;97970.69;;;1.18;100.00
12759;BME280;20944;47.048;15.390;2023-01-28T09:44:16;97967.13;;;1.08;100.00
12759;BME280;20944;47.048;15.390;2023-01-28T09:46:47;97958.44;;;1.05;100.00
12759;BME280;20944;47.048;15.390;2023-01-28T09:49:20;97927.38;;;0.96;100.00
12759;BME280;20944;47.048;15.390;2023-01-28T09:51:53;97930.00;;;1.00;100.00
12759;BME280;20944;47.048;15.390;2023-01-28T09:54:31;97943.25;;;1.25;100.00
12759;BME280;20944;47.048;15.390;2023-01-28T09:57:08;97944.06;;;1.21;100.00
12759;BME280;20944;47.048;15.390;2023-01-28T09:59:39;97948.38;;;1.20;100.00
12759;BME280;20944;47.048;15.390;2023-01-28T10:02:25;97953.44;;;1.16;100.00
12759;BME280;20944;47.048;15.390;2023-01-28T10:05:01;97973.34;;;1.23;100.00
12759;BME280;20944;47.048;15.390;2023-01-28T10:07:37;97907.34;;;0.81;100.00
12759;BME280;20944;47.048;15.390;2023-01-28T10:10:12;97946.41;;;1.04;100.00
12759;BME280;20944;47.048;15.390;2023-01-28T10:13:03;97966.47;;;1.23;100.00
12759;BME280;20944;47.048;15.390;2023-01-28T10:18:45;97518.53;;;-1.42;100.00
12759;BME280;20944;47.048;15.390;2023-01-28T10:21:19;97849.91;;;0.34;100.00
12759;BME280;20944;47.048;15.390;2023-01-28T10:23:56;97955.78;;;1.00;100.00
12759;BME280;20944;47.048;15.390;2023-01-28T10:26:29;97955.69;;;0.94;100.00
12759;BME280;20944;47.048;15.390;2023-01-28T10:29:13;97960.63;;;0.79;100.00
12759;BME280;20944;47.048;15.390;2023-01-28T10:31:49;97963.84;;;0.66;100.00
12759;BME280;20944;47.048;15.390;2023-01-28T10:34:26;97962.09;;;0.63;100.00
12759;BME280;20944;47.048;15.390;2023-01-28T10:36:56;97960.44;;;0.68;100.00
12759;BME280;20944;47.048;15.390;2023-01-28T10:39:25;97954.63;;;0.80;100.00
12759;BME280;20944;47.048;15.390;2023-01-28T10:41:55;97959.88;;;0.85;100.00
12759;BME280;20944;47.048;15.390;2023-01-28T10:44:33;97952.13;;;0.85;100.00
12759;BME280;20944;47.048;15.390;2023-01-28T10:47:08;97951.34;;;0.89;100.00
12759;BME280;20944;47.048;15.390;2023-01-28T10:49:41;97931.41;;;0.80;100.00
12759;BME280;20944;47.048;15.390;2023-01-28T10:52:11;97919.38;;;0.79;100.00
12759;BME280;20944;47.048;15.390;2023-01-28T10:54:40;97942.09;;;1.04;100.00
12759;BME280;20944;47.048;15.390;2023-01-28T10:57:10;97957.66;;;1.07;100.00
12759;BME280;20944;47.048;15.390;2023-01-28T10:59:41;97952.50;;;1.09;100.00
12759;BME280;20944;47.048;15.390;2023-01-28T11:02:23;97954.22;;;1.08;100.00
12759;BME280;20944;47.048;15.390;2023-01-28T11:05:03;97949.13;;;1.15;100.00
12759;BME280;20944;47.048;15.390;2023-01-28T11:07:32;97787.13;;;0.29;100.00
12759;BME280;20944;47.048;15.390;2023-01-28T11:10:01;97841.72;;;0.58;100.00
12759;BME280;20944;47.048;15.390;2023-01-28T11:12:29;97940.56;;;1.17;100.00
12759;BME280;20944;47.048;15.390;2023-01-28T11:15:01;97941.44;;;1.19;100.00
12759;BME280;20944;47.048;15.390;2023-01-28T11:17:31;97939.88;;;1.30;100.00
12759;BME280;20944;47.048;15.390;2023-01-28T11:20:09;97939.00;;;1.27;100.00
12759;BME280;20944;47.048;15.390;2023-01-28T11:22:44;97937.28;;;1.29;100.00
12759;BME280;20944;47.048;15.390;2023-01-28T11:25:17;97945.91;;;1.31;100.00
12759;BME280;20944;47.048;15.390;2023-01-28T11:27:50;97915.72;;;1.25;100.00
12759;BME280;20944;47.048;15.390;2023-01-28T11:30:23;97935.66;;;1.34;100.00
12759;BME280;20944;47.048;15.390;2023-01-28T11:32:55;97930.56;;;1.42;100.00
12759;BME280;20944;47.048;15.390;2023-01-28T11:35:25;97926.38;;;1.50;100.00
12759;BME280;20944;47.048;15.390;2023-01-28T11:37:55;97930.81;;;1.58;100.00
12759;BME280;20944;47.048;15.390;2023-01-28T11:40:26;97899.69;;;1.49;100.00
12759;BME280;20944;47.048;15.390;2023-01-28T11:42:56;97921.41;;;1.65;100.00
12759;BME280;20944;47.048;15.390;2023-01-28T11:45:37;97911.09;;;1.68;100.00
12759;BME280;20944;47.048;15.390;2023-01-28T11:48:17;97912.00;;;1.70;100.00
12759;BME280;20944;47.048;15.390;2023-01-28T11:50:53;97908.66;;;1.79;100.00
12759;BME280;20944;47.048;15.390;2023-01-28T11:53:49;97916.47;;;1.83;100.00
12759;BME280;20944;47.048;15.390;2023-01-28T11:56:37;97500.06;;;-0.62;100.00
12759;BME280;20944;47.048;15.390;2023-01-28T11:59:31;97912.22;;;1.90;100.00
12759;BME280;20944;47.048;15.390;2023-01-28T12:02:17;97893.00;;;1.64;100.00
12759;BME280;20944;47.048;15.390;2023-01-28T12:05:11;97903.50;;;1.82;100.00
12759;BME280;20944;47.048;15.390;2023-01-28T12:07:47;97917.34;;;1.85;100.00
12759;BME280;20944;47.048;15.390;2023-01-28T12:10:25;97900.13;;;1.87;100.00
12759;BME280;20944;47.048;15.390;2023-01-28T12:13:04;97907.94;;;1.92;100.00
12759;BME280;20944;47.048;15.390;2023-01-28T12:15:52;97900.75;;;1.67;100.00
12759;BME280;20944;47.048;15.390;2023-01-28T12:18:39;97892.78;;;1.45;100.00
12759;BME280;20944;47.048;15.390;2023-01-28T12:21:24;97896.38;;;1.59;100.00
12759;BME280;20944;47.048;15.390;2023-01-28T12:24:12;97867.06;;;1.56;100.00
12759;BME280;20944;47.048;15.390;2023-01-28T12:26:47;97896.50;;;1.70;100.00
12759;BME280;20944;47.048;15.390;2023-01-28T12:29:25;97812.53;;;1.28;100.00
12759;BME280;20944;47.048;15.390;2023-01-28T12:32:09;97887.94;;;1.74;100.00
12759;BME280;20944;47.048;15.390;2023-01-28T12:34:52;97893.66;;;1.50;100.00
12759;BME280;20944;47.048;15.390;2023-01-28T12:37:33;97889.41;;;1.54;100.00
12759;BME280;20944;47.048;15.390;2023-01-28T12:43:09;97896.47;;;1.67;100.00
12759;BME280;20944;47.048;15.390;2023-01-28T12:45:45;97892.88;;;1.54;100.00
12759;BME280;20944;47.048;15.390;2023-01-28T12:48:18;97894.75;;;1.68;100.00
12759;BME280;20944;47.048;15.390;2023-01-28T12:50:58;97891.38;;;1.75;100.00
12759;BME280;20944;47.048;15.390;2023-01-28T12:53:36;97895.66;;;1.73;100.00
12759;BME280;20944;47.048;15.390;2023-01-28T12:56:11;97898.19;;;1.68;100.00
12759;BME280;20944;47.048;15.390;2023-01-28T12:58:48;97902.63;;;1.77;100.00
12759;BME280;20944;47.048;15.390;2023-01-28T13:01:22;97899.16;;;1.76;100.00
12759;BME280;20944;47.048;15.390;2023-01-28T13:03:56;97903.56;;;1.85;100.00
12759;BME280;20944;47.048;15.390;2023-01-28T13:06:36;97794.25;;;1.08;100.00
12759;BME280;20944;47.048;15.390;2023-01-28T13:09:14;97904.41;;;1.82;100.00
12759;BME280;20944;47.048;15.390;2023-01-28T13:11:45;97867.19;;;1.65;100.00
12759;BME280;20944;47.048;15.390;2023-01-28T13:14:19;97675.88;;;0.57;100.00
12759;BME280;20944;47.048;15.390;2023-01-28T13:16:49;97790.91;;;1.19;100.00
12759;BME280;20944;47.048;15.390;2023-01-28T13:19:23;97902.69;;;1.86;100.00
12759;BME280;20944;47.048;15.390;2023-01-28T13:21:53;97888.75;;;1.70;100.00
12759;BME280;20944;47.048;15.390;2023-01-28T13:24:30;97917.25;;;1.76;100.00